sensor_id;sensor_type;location;lat;lon;timestamp;pressure;altitude;pressure_sealevel;temperature;humidity
23677;BME280;31493;49.058;12.190;2024-02-16T00:02:16;96141.63;;;8.57;100.00
23677;BME280;31493;49.058;12.190;2024-02-16T00:04:44;96146.06;;;8.55;100.00
23677;BME280;31493;49.058;12.190;2024-02-16T00:07:11;96135.25;;;8.63;100.00
23677;BME280;31493;49.058;12.190;2024-02-16T00:09:39;96138.59;;;8.51;100.00
23677;BME280;31493;49.058;12.190;2024-02-16T00:12:06;96133.69;;;8.60;100.00
23677;BME280;31493;49.058;12.190;2024-02-16T00:14:33;96136.38;;;8.59;100.00
23677;BME280;31493;49.058;12.190;2024-02-16T00:17:01;96129.75;;;8.55;100.00
23677;BME280;31493;49.058;12.190;2024-02-16T00:19:28;96134.25;;;8.51;100.00
23677;BME280;31493;49.058;12.190;2024-02-16T00:21:55;96136.94;;;8.50;100.00
23677;BME280;31493;49.058;12.190;2024-02-16T00:24:22;96129.09;;;8.51;100.00
23677;BME280;31493;49.058;12.190;2024-02-16T00:26:50;96129.84;;;8.53;100.00
23677;BME280;31493;49.058;12.190;2024-02-16T00:29:17;96127.88;;;8.57;100.00
23677;BME280;31493;49.058;12.190;2024-02-16T00:31:44;96137.59;;;8.53;100.00
23677;BME280;31493;49.058;12.190;2024-02-16T00:34:11;96129.28;;;8.48;100.00
23677;BME280;31493;49.058;12.190;2024-02-16T00:36:38;96127.19;;;8.40;100.00
23677;BME280;31493;49.058;12.190;2024-02-16T00:39:06;96124.25;;;8.32;100.00
23677;BME280;31493;49.058;12.190;2024-02-16T00:41:33;96120.75;;;8.33;100.00
23677;BME280;31493;49.058;12.190;2024-02-16T00:44:01;96119.00;;;8.34;100.00
23677;BME280;31493;49.058;12.190;2024-02-16T00:46:28;96111.63;;;8.28;100.00
23677;BME280;31493;49.058;12.190;2024-02-16T00:48:55;96125.09;;;8.19;100.00
23677;BME280;31493;49.058;12.190;2024-02-16T00:51:22;96122.13;;;8.25;100.00
23677;BME280;31493;49.058;12.190;2024-02-16T00:53:51;96121.41;;;8.23;100.00
23677;BME280;31493;49.058;12.190;2024-02-16T00:56:19;96118.63;;;8.26;100.00
23677;BME280;31493;49.058;12.190;2024-02-16T00:58:46;96118.56;;;8.27;100.00
23677;BME280;31493;49.058;12.190;2024-02-16T01:01:14;96121.88;;;8.29;100.00
23677;BME280;31493;49.058;12.190;2024-02-16T01:03:41;96122.41;;;8.20;100.00
23677;BME280;31493;49.058;12.190;2024-02-16T01:06:08;96125.38;;;8.28;100.00
23677;BME280;31493;49.058;12.190;2024-02-16T01:08:36;96121.97;;;8.13;100.00
23677;BME280;31493;49.058;12.190;2024-02-16T01:11:03;96126.75;;;8.20;100.00
23677;BME280;31493;49.058;12.190;2024-02-16T01:13:30;96128.34;;;8.22;100.00
23677;BME280;31493;49.058;12.190;2024-02-16T01:15:58;96127.06;;;8.15;100.00
23677;BME280;31493;49.058;12.190;2024-02-16T01:18:28;96131.84;;;8.21;100.00
23677;BME280;31493;49.058;12.190;2024-02-16T01:20:55;96125.75;;;8.08;100.00
23677;BME280;31493;49.058;12.190;2024-02-16T01:23:22;96127.63;;;7.92;100.00
23677;BME280;31493;49.058;12.190;2024-02-16T01:25:49;96127.34;;;7.96;100.00
23677;BME280;31493;49.058;12.190;2024-02-16T01:28:16;96125.41;;;8.00;100.00
23677;BME280;31493;49.058;12.190;2024-02-16T01:30:43;96128.53;;;7.91;100.00
23677;BME280;31493;49.058;12.190;2024-02-16T01:33:10;96124.47;;;8.01;100.00
23677;BME280;31493;49.058;12.190;2024-02-16T01:35:39;96130.00;;;7.95;100.00
23677;BME280;31493;49.058;12.190;2024-02-16T01:38:06;96127.88;;;8.01;100.00
23677;BME280;31493;49.058;12.190;2024-02-16T01:40:33;96132.22;;;8.01;100.00
23677;BME280;31493;49.058;12.190;2024-02-16T01:43:00;96127.34;;;7.96;100.00
23677;BME280;31493;49.058;12.190;2024-02-16T01:45:27;96123.63;;;8.00;100.00
23677;BME280;31493;49.058;12.190;2024-02-16T01:47:54;96111.38;;;7.89;100.00
23677;BME280;31493;49.058;12.190;2024-02-16T01:50:22;96121.53;;;7.93;100.00
23677;BME280;31493;49.058;12.190;2024-02-16T01:52:50;96116.56;;;8.04;100.00
23677;BME280;31493;49.058;12.190;2024-02-16T01:55:20;96115.03;;;8.14;100.00
23677;BME280;31493;49.058;12.190;2024-02-16T01:57:48;96102.72;;;8.05;100.00
23677;BME280;31493;49.058;12.190;2024-02-16T02:00:15;96095.44;;;7.97;100.00
23677;BME280;31493;49.058;12.190;2024-02-16T02:02:45;96094.16;;;7.90;100.00
23677;BME280;31493;49.058;12.190;2024-02-16T02:05:13;96100.41;;;8.00;100.00
23677;BME280;31493;49.058;12.190;2024-02-16T02:07:40;96087.88;;;7.94;100.00
23677;BME280;31493;49.058;12.190;2024-02-16T02:10:10;96087.69;;;7.97;100.00
23677;BME280;31493;49.058;12.190;2024-02-16T02:12:38;96087.97;;;7.93;100.00
23677;BME280;31493;49.058;12.190;2024-02-16T02:15:06;96074.56;;;8.00;100.00
23677;BME280;31493;49.058;12.190;2024-02-16T02:17:34;96082.34;;;7.86;100.00
23677;BME280;31493;49.058;12.190;2024-02-16T02:20:01;96066.84;;;7.86;100.00
23677;BME280;31493;49.058;12.190;2024-02-16T02:22:31;96057.81;;;7.93;100.00
23677;BME280;31493;49.058;12.190;2024-02-16T02:24:58;96046.31;;;7.84;100.00
23677;BME280;31493;49.058;12.190;2024-02-16T02:27:25;96049.72;;;7.85;100.00
23677;BME280;31493;49.058;12.190;2024-02-16T02:29:52;96046.00;;;7.89;100.00
23677;BME280;31493;49.058;12.190;2024-02-16T02:32:19;96058.28;;;7.85;100.00
23677;BME280;31493;49.058;12.190;2024-02-16T02:34:46;96045.19;;;7.88;100.00
23677;BME280;31493;49.058;12.190;2024-02-16T02:37:13;96047.84;;;7.87;100.00
23677;BME280;31493;49.058;12.190;2024-02-16T02:39:42;96043.25;;;7.92;100.00
23677;BME280;31493;49.058;12.190;2024-02-16T02:42:09;96053.41;;;7.81;100.00
23677;BME280;31493;49.058;12.190;2024-02-16T02:44:37;96065.09;;;7.86;100.00
23677;BME280;31493;49.058;12.190;2024-02-16T02:47:04;96063.06;;;7.92;100.00
23677;BME280;31493;49.058;12.190;2024-02-16T02:49:31;96069.53;;;7.84;100.00
23677;BME280;31493;49.058;12.190;2024-02-16T02:52:00;96065.66;;;7.77;100.00
23677;BME280;31493;49.058;12.190;2024-02-16T02:54:28;96071.19;;;7.71;100.00
23677;BME280;31493;49.058;12.190;2024-02-16T02:56:56;96075.91;;;7.79;100.00
23677;BME280;31493;49.058;12.190;2024-02-16T02:59:23;96071.38;;;7.82;100.00
23677;BME280;31493;49.058;12.190;2024-02-16T03:01:50;96085.19;;;7.81;100.00
23677;BME280;31493;49.058;12.190;2024-02-16T03:04:17;96087.22;;;7.76;100.00
23677;BME280;31493;49.058;12.190;2024-02-16T03:06:44;96084.75;;;7.75;100.00
23677;BME280;31493;49.058;12.190;2024-02-16T03:09:11;96084.94;;;7.72;100.00
23677;BME280;31493;49.058;12.190;2024-02-16T03:11:39;96072.69;;;7.61;100.00
23677;BME280;31493;49.058;12.190;2024-02-16T03:14:07;96072.09;;;7.70;100.00
23677;BME280;31493;49.058;12.190;2024-02-16T03:16:34;96061.97;;;7.67;100.00
23677;BME280;31493;49.058;12.190;2024-02-16T03:19:06;96062.97;;;7.65;100.00
23677;BME280;31493;49.058;12.190;2024-02-16T03:21:34;96054.25;;;7.67;100.00
23677;BME280;31493;49.058;12.190;2024-02-16T03:24:01;96059.94;;;7.58;100.00
23677;BME280;31493;49.058;12.190;2024-02-16T03:26:29;96059.66;;;7.63;100.00
23677;BME280;31493;49.058;12.190;2024-02-16T03:28:58;96056.91;;;7.66;100.00
23677;BME280;31493;49.058;12.190;2024-02-16T03:31:26;96071.00;;;7.74;100.00
23677;BME280;31493;49.058;12.190;2024-02-16T03:33:54;96070.28;;;7.72;100.00
23677;BME280;31493;49.058;12.190;2024-02-16T03:36:21;96063.81;;;7.65;100.00
23677;BME280;31493;49.058;12.190;2024-02-16T03:38:48;96071.84;;;7.75;100.00
23677;BME280;31493;49.058;12.190;2024-02-16T03:41:19;96082.81;;;7.78;100.00
23677;BME280;31493;49.058;12.190;2024-02-16T03:43:47;96068.22;;;7.77;100.00
23677;BME280;31493;49.058;12.190;2024-02-16T03:46:14;96082.44;;;7.70;100.00
23677;BME280;31493;49.058;12.190;2024-02-16T03:48:43;96086.59;;;7.73;100.00
23677;BME280;31493;49.058;12.190;2024-02-16T03:51:10;96089.81;;;7.62;100.00
23677;BME280;31493;49.058;12.190;2024-02-16T03:53:37;96097.38;;;7.79;100.00
23677;BME280;31493;49.058;12.190;2024-02-16T03:56:04;96093.50;;;7.72;100.00
23677;BME280;31493;49.058;12.190;2024-02-16T03:58:33;96098.94;;;7.68;100.00
23677;BME280;31493;49.058;12.190;2024-02-16T04:01:00;96096.53;;;7.65;100.00
23677;BME280;31493;49.058;12.190;2024-02-16T04:03:27;96091.19;;;7.68;100.00
23677;BME280;31493;49.058;12.190;2024-02-16T04:05:55;96090.75;;;7.61;100.00
23677;BME280;31493;49.058;12.190;2024-02-16T04:08:22;96103.06;;;7.70;100.00
23677;BME280;31493;49.058;12.190;2024-02-16T04:10:49;96099.56;;;7.71;100.00
23677;BME280;31493;49.058;12.190;2024-02-16T04:13:17;96095.53;;;7.67;100.00
23677;BME280;31493;49.058;12.190;2024-02-16T04:15:44;96107.78;;;7.64;100.00
23677;BME280;31493;49.058;12.190;2024-02-16T04:18:11;96112.94;;;7.64;100.00
23677;BME280;31493;49.058;12.190;2024-02-16T04:20:38;96119.13;;;7.61;100.00
23677;BME280;31493;49.058;12.190;2024-02-16T04:23:08;96116.28;;;7.66;100.00
23677;BME280;31493;49.058;12.190;2024-02-16T04:25:35;96110.72;;;7.57;100.00
23677;BME280;31493;49.058;12.190;2024-02-16T04:28:02;96129.63;;;7.58;100.00
23677;BME280;31493;49.058;12.190;2024-02-16T04:30:29;96135.31;;;7.49;100.00
23677;BME280;31493;49.058;12.190;2024-02-16T04:32:56;96140.75;;;7.58;100.00
23677;BME280;31493;49.058;12.190;2024-02-16T04:35:23;96140.59;;;7.61;100.00
23677;BME280;31493;49.058;12.190;2024-02-16T04:37:50;96131.25;;;7.59;100.00
23677;BME280;31493;49.058;12.190;2024-02-16T04:40:19;96130.63;;;7.55;100.00
23677;BME280;31493;49.058;12.190;2024-02-16T04:42:46;96126.94;;;7.45;100.00
23677;BME280;31493;49.058;12.190;2024-02-16T04:45:13;96126.00;;;7.46;100.00
23677;BME280;31493;49.058;12.190;2024-02-16T04:47:40;96119.38;;;7.42;100.00
23677;BME280;31493;49.058;12.190;2024-02-16T04:50:08;96126.19;;;7.43;100.00
23677;BME280;31493;49.058;12.190;2024-02-16T04:52:37;96128.94;;;7.40;100.00
23677;BME280;31493;49.058;12.190;2024-02-16T04:55:06;96134.19;;;7.39;100.00
23677;BME280;31493;49.058;12.190;2024-02-16T04:57:35;96129.88;;;7.39;100.00
23677;BME280;31493;49.058;12.190;2024-02-16T05:00:03;96126.56;;;7.37;100.00
23677;BME280;31493;49.058;12.190;2024-02-16T05:02:30;96122.03;;;7.41;100.00
23677;BME280;31493;49.058;12.190;2024-02-16T05:04:57;96120.38;;;7.40;100.00
23677;BME280;31493;49.058;12.190;2024-02-16T05:07:24;96123.72;;;7.42;100.00
23677;BME280;31493;49.058;12.190;2024-02-16T05:09:51;96119.88;;;7.33;100.00
23677;BME280;31493;49.058;12.190;2024-02-16T05:12:23;96116.19;;;7.23;100.00
23677;BME280;31493;49.058;12.190;2024-02-16T05:14:52;96121.34;;;7.23;100.00
23677;BME280;31493;49.058;12.190;2024-02-16T05:17:19;96109.81;;;7.28;100.00
23677;BME280;31493;49.058;12.190;2024-02-16T05:19:48;96116.56;;;7.31;100.00
23677;BME280;31493;49.058;12.190;2024-02-16T05:22:15;96113.41;;;7.26;100.00
23677;BME280;31493;49.058;12.190;2024-02-16T05:24:44;96106.75;;;7.22;100.00
23677;BME280;31493;49.058;12.190;2024-02-16T05:27:11;96100.88;;;7.20;100.00
23677;BME280;31493;49.058;12.190;2024-02-16T05:29:39;96106.94;;;7.19;100.00
23677;BME280;31493;49.058;12.190;2024-02-16T05:32:07;96099.03;;;7.22;100.00
23677;BME280;31493;49.058;12.190;2024-02-16T05:34:36;96106.50;;;7.26;100.00
23677;BME280;31493;49.058;12.190;2024-02-16T05:37:04;96104.84;;;7.25;100.00
23677;BME280;31493;49.058;12.190;2024-02-16T05:39:33;96100.28;;;7.15;100.00
23677;BME280;31493;49.058;12.190;2024-02-16T05:42:02;96105.50;;;7.29;100.00
23677;BME280;31493;49.058;12.190;2024-02-16T05:44:29;96099.78;;;7.24;100.00
23677;BME280;31493;49.058;12.190;2024-02-16T05:46:58;96099.47;;;7.14;100.00
23677;BME280;31493;49.058;12.190;2024-02-16T05:49:27;96096.59;;;7.04;100.00
23677;BME280;31493;49.058;12.190;2024-02-16T05:51:54;96098.16;;;7.07;100.00
23677;BME280;31493;49.058;12.190;2024-02-16T05:54:43;96104.59;;;7.30;100.00
23677;BME280;31493;49.058;12.190;2024-02-16T05:57:10;96105.41;;;7.30;100.00
23677;BME280;31493;49.058;12.190;2024-02-16T05:59:38;96102.50;;;7.37;100.00
23677;BME280;31493;49.058;12.190;2024-02-16T06:02:05;96105.91;;;7.37;100.00
23677;BME280;31493;49.058;12.190;2024-02-16T06:04:36;96106.47;;;7.42;100.00
23677;BME280;31493;49.058;12.190;2024-02-16T06:07:03;96108.22;;;7.42;100.00
23677;BME280;31493;49.058;12.190;2024-02-16T06:09:31;96120.63;;;7.35;100.00
23677;BME280;31493;49.058;12.190;2024-02-16T06:12:02;96116.97;;;7.39;100.00
23677;BME280;31493;49.058;12.190;2024-02-16T06:14:31;96115.16;;;7.25;100.00
23677;BME280;31493;49.058;12.190;2024-02-16T06:16:58;96121.72;;;7.31;100.00
23677;BME280;31493;49.058;12.190;2024-02-16T06:19:25;96122.31;;;7.36;100.00
23677;BME280;31493;49.058;12.190;2024-02-16T06:21:54;96123.97;;;7.37;100.00
23677;BME280;31493;49.058;12.190;2024-02-16T06:24:21;96128.44;;;7.33;100.00
23677;BME280;31493;49.058;12.190;2024-02-16T06:26:49;96119.41;;;7.26;100.00
23677;BME280;31493;49.058;12.190;2024-02-16T06:29:17;96116.19;;;7.23;100.00
23677;BME280;31493;49.058;12.190;2024-02-16T06:31:45;96119.13;;;7.17;100.00
23677;BME280;31493;49.058;12.190;2024-02-16T06:34:13;96124.47;;;7.28;100.00
23677;BME280;31493;49.058;12.190;2024-02-16T06:36:40;96127.88;;;7.28;100.00
23677;BME280;31493;49.058;12.190;2024-02-16T06:39:09;96127.69;;;7.17;100.00
23677;BME280;31493;49.058;12.190;2024-02-16T06:41:36;96129.56;;;7.29;100.00
23677;BME280;31493;49.058;12.190;2024-02-16T06:44:04;96123.97;;;7.21;100.00
23677;BME280;31493;49.058;12.190;2024-02-16T06:46:31;96128.06;;;7.25;100.00
23677;BME280;31493;49.058;12.190;2024-02-16T06:48:58;96133.19;;;7.11;100.00
23677;BME280;31493;49.058;12.190;2024-02-16T06:51:25;96132.88;;;7.01;100.00
23677;BME280;31493;49.058;12.190;2024-02-16T06:53:54;96133.19;;;7.11;100.00
23677;BME280;31493;49.058;12.190;2024-02-16T06:56:22;96133.13;;;7.27;100.00
23677;BME280;31493;49.058;12.190;2024-02-16T06:58:50;96131.09;;;7.32;100.00
23677;BME280;31493;49.058;12.190;2024-02-16T07:01:17;96131.66;;;7.23;100.00
23677;BME280;31493;49.058;12.190;2024-02-16T07:03:44;96136.28;;;7.32;100.00
23677;BME280;31493;49.058;12.190;2024-02-16T07:06:12;96135.53;;;7.30;100.00
23677;BME280;31493;49.058;12.190;2024-02-16T07:08:39;96142.75;;;7.39;100.00
23677;BME280;31493;49.058;12.190;2024-02-16T07:11:07;96137.00;;;7.34;100.00
23677;BME280;31493;49.058;12.190;2024-02-16T07:13:37;96133.75;;;7.46;100.00
23677;BME280;31493;49.058;12.190;2024-02-16T07:16:05;96135.22;;;7.50;100.00
23677;BME280;31493;49.058;12.190;2024-02-16T07:18:33;96142.63;;;7.56;100.00
23677;BME280;31493;49.058;12.190;2024-02-16T07:21:01;96137.66;;;7.53;100.00
23677;BME280;31493;49.058;12.190;2024-02-16T07:23:28;96138.38;;;7.55;100.00
23677;BME280;31493;49.058;12.190;2024-02-16T07:25:55;96125.00;;;7.49;100.00
23677;BME280;31493;49.058;12.190;2024-02-16T07:28:24;96125.56;;;7.68;100.00
23677;BME280;31493;49.058;12.190;2024-02-16T07:30:53;96132.69;;;7.79;100.00
23677;BME280;31493;49.058;12.190;2024-02-16T07:33:20;96131.56;;;7.83;100.00
23677;BME280;31493;49.058;12.190;2024-02-16T07:35:50;96143.75;;;7.81;100.00
23677;BME280;31493;49.058;12.190;2024-02-16T07:38:17;96163.72;;;7.77;100.00
23677;BME280;31493;49.058;12.190;2024-02-16T07:40:44;96158.41;;;7.80;100.00
23677;BME280;31493;49.058;12.190;2024-02-16T07:43:12;96163.84;;;7.76;100.00
23677;BME280;31493;49.058;12.190;2024-02-16T07:45:39;96147.72;;;7.86;100.00
23677;BME280;31493;49.058;12.190;2024-02-16T07:48:08;96157.56;;;7.94;100.00
23677;BME280;31493;49.058;12.190;2024-02-16T07:50:35;96153.81;;;7.85;100.00
23677;BME280;31493;49.058;12.190;2024-02-16T07:53:02;96172.97;;;7.81;100.00
23677;BME280;31493;49.058;12.190;2024-02-16T07:55:29;96175.75;;;7.78;100.00
23677;BME280;31493;49.058;12.190;2024-02-16T07:57:56;96174.97;;;7.62;100.00
23677;BME280;31493;49.058;12.190;2024-02-16T08:00:23;96182.69;;;7.48;100.00
23677;BME280;31493;49.058;12.190;2024-02-16T08:02:50;96187.28;;;7.27;100.00
23677;BME280;31493;49.058;12.190;2024-02-16T08:05:19;96197.69;;;7.25;100.00
23677;BME280;31493;49.058;12.190;2024-02-16T08:07:46;96181.97;;;7.60;100.00
23677;BME280;31493;49.058;12.190;2024-02-16T08:10:13;96188.41;;;7.53;100.00
23677;BME280;31493;49.058;12.190;2024-02-16T08:12:40;96197.66;;;7.71;100.00
23677;BME280;31493;49.058;12.190;2024-02-16T08:15:08;96196.41;;;7.48;100.00
23677;BME280;31493;49.058;12.190;2024-02-16T08:17:36;96205.81;;;7.49;100.00
23677;BME280;31493;49.058;12.190;2024-02-16T08:20:04;96207.31;;;7.53;100.00
23677;BME280;31493;49.058;12.190;2024-02-16T08:22:33;96207.78;;;7.14;100.00
23677;BME280;31493;49.058;12.190;2024-02-16T08:25:02;96208.56;;;7.46;100.00
23677;BME280;31493;49.058;12.190;2024-02-16T08:27:29;96212.75;;;7.63;100.00
23677;BME280;31493;49.058;12.190;2024-02-16T08:29:56;96206.47;;;7.53;100.00
23677;BME280;31493;49.058;12.190;2024-02-16T08:32:23;96210.09;;;7.65;100.00
23677;BME280;31493;49.058;12.190;2024-02-16T08:34:52;96205.28;;;7.58;100.00
23677;BME280;31493;49.058;12.190;2024-02-16T08:37:19;96197.06;;;7.52;100.00
23677;BME280;31493;49.058;12.190;2024-02-16T08:39:47;96197.53;;;7.58;100.00
23677;BME280;31493;49.058;12.190;2024-02-16T08:42:15;96218.63;;;7.51;100.00
23677;BME280;31493;49.058;12.190;2024-02-16T08:44:42;96204.66;;;7.69;100.00
23677;BME280;31493;49.058;12.190;2024-02-16T08:47:09;96207.28;;;7.98;100.00
23677;BME280;31493;49.058;12.190;2024-02-16T08:49:36;96210.03;;;7.95;100.00
23677;BME280;31493;49.058;12.190;2024-02-16T08:52:06;96208.50;;;8.06;100.00
23677;BME280;31493;49.058;12.190;2024-02-16T08:54:33;96206.38;;;8.13;100.00
23677;BME280;31493;49.058;12.190;2024-02-16T08:57:01;96213.53;;;8.51;100.00
23677;BME280;31493;49.058;12.190;2024-02-16T08:59:28;96200.19;;;8.30;100.00
23677;BME280;31493;49.058;12.190;2024-02-16T09:01:56;96203.25;;;8.22;100.00
23677;BME280;31493;49.058;12.190;2024-02-16T09:04:24;96198.28;;;8.33;100.00
23677;BME280;31493;49.058;12.190;2024-02-16T09:06:51;96192.69;;;8.54;100.00
23677;BME280;31493;49.058;12.190;2024-02-16T09:09:19;96197.63;;;8.85;100.00
23677;BME280;31493;49.058;12.190;2024-02-16T09:11:46;96200.53;;;8.66;100.00
23677;BME280;31493;49.058;12.190;2024-02-16T09:14:14;96202.28;;;9.07;100.00
23677;BME280;31493;49.058;12.190;2024-02-16T09:16:41;96196.22;;;9.21;100.00
23677;BME280;31493;49.058;12.190;2024-02-16T09:19:09;96194.31;;;9.10;100.00
23677;BME280;31493;49.058;12.190;2024-02-16T09:21:36;96205.50;;;9.38;100.00
23677;BME280;31493;49.058;12.190;2024-02-16T09:24:03;96205.91;;;9.32;100.00
23677;BME280;31493;49.058;12.190;2024-02-16T09:26:36;96194.00;;;9.15;100.00
23677;BME280;31493;49.058;12.190;2024-02-16T09:29:03;96205.03;;;9.04;100.00
23677;BME280;31493;49.058;12.190;2024-02-16T09:31:31;96198.00;;;9.06;100.00
23677;BME280;31493;49.058;12.190;2024-02-16T09:33:58;96196.84;;;8.98;100.00
23677;BME280;31493;49.058;12.190;2024-02-16T09:36:25;96200.47;;;8.95;100.00
23677;BME280;31493;49.058;12.190;2024-02-16T09:38:52;96204.53;;;9.12;100.00
23677;BME280;31493;49.058;12.190;2024-02-16T09:41:19;96207.53;;;9.06;100.00
23677;BME280;31493;49.058;12.190;2024-02-16T09:43:46;96200.06;;;9.01;100.00
23677;BME280;31493;49.058;12.190;2024-02-16T09:46:15;96205.19;;;9.15;100.00
23677;BME280;31493;49.058;12.190;2024-02-16T09:48:45;96218.13;;;9.42;100.00
23677;BME280;31493;49.058;12.190;2024-02-16T09:51:14;96195.50;;;9.59;100.00
23677;BME280;31493;49.058;12.190;2024-02-16T09:53:42;96198.91;;;9.59;100.00
23677;BME280;31493;49.058;12.190;2024-02-16T09:56:09;96196.97;;;9.63;100.00
23677;BME280;31493;49.058;12.190;2024-02-16T09:58:36;96204.31;;;9.56;100.00
23677;BME280;31493;49.058;12.190;2024-02-16T10:01:03;96197.16;;;9.60;100.00
23677;BME280;31493;49.058;12.190;2024-02-16T10:03:31;96214.13;;;9.51;100.00
23677;BME280;31493;49.058;12.190;2024-02-16T10:06:08;96212.59;;;9.74;100.00
23677;BME280;31493;49.058;12.190;2024-02-16T10:08:46;96219.88;;;9.82;100.00
23677;BME280;31493;49.058;12.190;2024-02-16T10:11:15;96218.00;;;9.96;100.00
23677;BME280;31493;49.058;12.190;2024-02-16T10:13:42;96217.09;;;9.97;100.00
23677;BME280;31493;49.058;12.190;2024-02-16T10:16:10;96211.50;;;10.03;100.00
23677;BME280;31493;49.058;12.190;2024-02-16T10:18:38;96219.19;;;10.18;100.00
23677;BME280;31493;49.058;12.190;2024-02-16T10:21:08;96227.13;;;10.40;100.00
23677;BME280;31493;49.058;12.190;2024-02-16T10:23:35;96228.91;;;10.40;100.00
23677;BME280;31493;49.058;12.190;2024-02-16T10:26:02;96231.03;;;10.71;100.00
23677;BME280;31493;49.058;12.190;2024-02-16T10:28:29;96223.97;;;10.73;100.00
23677;BME280;31493;49.058;12.190;2024-02-16T10:30:58;96237.53;;;10.90;100.00
23677;BME280;31493;49.058;12.190;2024-02-16T10:33:27;96232.28;;;10.53;100.00
23677;BME280;31493;49.058;12.190;2024-02-16T10:35:56;96231.72;;;10.37;100.00
23677;BME280;31493;49.058;12.190;2024-02-16T10:38:25;96212.38;;;10.53;100.00
23677;BME280;31493;49.058;12.190;2024-02-16T10:40:53;96211.63;;;10.64;100.00
23677;BME280;31493;49.058;12.190;2024-02-16T10:43:24;96213.81;;;10.83;100.00
23677;BME280;31493;49.058;12.190;2024-02-16T10:45:51;96214.03;;;10.67;100.00
23677;BME280;31493;49.058;12.190;2024-02-16T10:48:19;96225.13;;;10.69;100.00
23677;BME280;31493;49.058;12.190;2024-02-16T10:50:46;96222.63;;;10.80;100.00
23677;BME280;31493;49.058;12.190;2024-02-16T10:53:21;96218.56;;;10.76;100.00
23677;BME280;31493;49.058;12.190;2024-02-16T10:55:51;96218.06;;;10.71;100.00
23677;BME280;31493;49.058;12.190;2024-02-16T10:58:18;96216.84;;;10.64;100.00
23677;BME280;31493;49.058;12.190;2024-02-16T11:05:33;96212.63;;;11.00;100.00
23677;BME280;31493;49.058;12.190;2024-02-16T11:08:01;96206.22;;;10.80;100.00
23677;BME280;31493;49.058;12.190;2024-02-16T11:10:29;96206.84;;;10.83;100.00
23677;BME280;31493;49.058;12.190;2024-02-16T11:13:01;96210.38;;;10.82;100.00
23677;BME280;31493;49.058;12.190;2024-02-16T11:15:31;96194.66;;;10.97;100.00
23677;BME280;31493;49.058;12.190;2024-02-16T11:18:00;96204.94;;;10.98;100.00
23677;BME280;31493;49.058;12.190;2024-02-16T11:20:27;96206.13;;;11.18;100.00
23677;BME280;31493;49.058;12.190;2024-02-16T11:23:06;96205.97;;;10.96;100.00
23677;BME280;31493;49.058;12.190;2024-02-16T11:25:35;96203.50;;;10.94;100.00
23677;BME280;31493;49.058;12.190;2024-02-16T11:28:04;96202.44;;;10.97;100.00
23677;BME280;31493;49.058;12.190;2024-02-16T11:30:33;96213.28;;;11.15;100.00
23677;BME280;31493;49.058;12.190;2024-02-16T11:33:01;96196.06;;;11.14;100.00
23677;BME280;31493;49.058;12.190;2024-02-16T11:35:28;96209.41;;;11.79;100.00
23677;BME280;31493;49.058;12.190;2024-02-16T11:37:55;96197.22;;;12.37;100.00
23677;BME280;31493;49.058;12.190;2024-02-16T11:40:25;96192.16;;;12.25;96.50
23677;BME280;31493;49.058;12.190;2024-02-16T11:42:58;96190.25;;;12.60;98.74
23677;BME280;31493;49.058;12.190;2024-02-16T11:45:25;96198.19;;;12.70;97.38
23677;BME280;31493;49.058;12.190;2024-02-16T11:48:03;96184.94;;;12.28;91.20
23677;BME280;31493;49.058;12.190;2024-02-16T11:50:30;96196.16;;;12.74;94.86
23677;BME280;31493;49.058;12.190;2024-02-16T11:52:58;96185.91;;;13.04;93.81
23677;BME280;31493;49.058;12.190;2024-02-16T11:55:26;96166.22;;;13.55;88.95
23677;BME280;31493;49.058;12.190;2024-02-16T11:57:53;96179.41;;;13.74;83.56
23677;BME280;31493;49.058;12.190;2024-02-16T12:00:22;96177.06;;;13.92;83.69
23677;BME280;31493;49.058;12.190;2024-02-16T12:02:59;96174.19;;;13.42;80.16
23677;BME280;31493;49.058;12.190;2024-02-16T12:05:26;96178.75;;;12.85;81.22
23677;BME280;31493;49.058;12.190;2024-02-16T12:07:53;96180.66;;;12.72;84.40
23677;BME280;31493;49.058;12.190;2024-02-16T12:10:20;96178.13;;;12.93;90.84
23677;BME280;31493;49.058;12.190;2024-02-16T12:12:48;96183.78;;;13.41;89.69
23677;BME280;31493;49.058;12.190;2024-02-16T12:15:16;96179.84;;;13.15;88.38
23677;BME280;31493;49.058;12.190;2024-02-16T12:17:43;96173.78;;;13.25;89.00
23677;BME280;31493;49.058;12.190;2024-02-16T12:20:11;96167.63;;;12.94;90.15
23677;BME280;31493;49.058;12.190;2024-02-16T12:22:39;96169.16;;;12.86;90.72
23677;BME280;31493;49.058;12.190;2024-02-16T12:25:07;96187.75;;;12.81;93.36
23677;BME280;31493;49.058;12.190;2024-02-16T12:27:35;96189.28;;;12.73;88.56
23677;BME280;31493;49.058;12.190;2024-02-16T12:30:04;96189.31;;;12.50;95.42
23677;BME280;31493;49.058;12.190;2024-02-16T12:32:31;96191.75;;;12.18;96.99
23677;BME280;31493;49.058;12.190;2024-02-16T12:34:58;96179.69;;;12.06;100.00
23677;BME280;31493;49.058;12.190;2024-02-16T12:37:25;96173.66;;;12.05;100.00
23677;BME280;31493;49.058;12.190;2024-02-16T12:39:52;96179.47;;;11.98;100.00
23677;BME280;31493;49.058;12.190;2024-02-16T12:42:20;96181.25;;;12.08;100.00
23677;BME280;31493;49.058;12.190;2024-02-16T12:44:47;96178.06;;;12.16;100.00
23677;BME280;31493;49.058;12.190;2024-02-16T12:47:16;96180.69;;;12.27;100.00
23677;BME280;31493;49.058;12.190;2024-02-16T12:49:43;96182.78;;;12.11;100.00
23677;BME280;31493;49.058;12.190;2024-02-16T12:52:10;96183.59;;;12.11;100.00
23677;BME280;31493;49.058;12.190;2024-02-16T12:54:48;96173.91;;;12.13;100.00
23677;BME280;31493;49.058;12.190;2024-02-16T12:57:15;96168.25;;;12.08;100.00